Time;durP1;ratioP1;P1;durP2;ratioP2;P2;SDS_P1;SDS_P2;PMS_P1;PMS_P2;Temp;Humidity;BMP_temperature;BMP_pressure;BME280_temperature;BME280_humidity;BME280_pressure;Samples;Min_cycle;Max_cycle;Signal;HPM_P1;HPM_P2
2021/07/22 00:01:45;;;;;;;2.60;0.95;;;;;;;20.45;70.28;92998.22;4834796;29;20125;-95
2021/07/22 00:11:12;;;;;;;;;;;;;;;;;;;;;
2021/07/22 00:14:53;;;;;;;1.10;0.50;;;;;;;20.52;70.78;93009.84;4920961;29;20044;-95
2021/07/22 00:18:42;;;;;;;;;;;;;;;;;;;;;
2021/07/22 00:22:01;;;;;;;;;;;;;;;;;;;;;
2021/07/22 00:28:46;;;;;;;;;;;;;;;;;;;;;
2021/07/22 00:32:14;;;;;;;2.53;1.20;;;;;;;20.50;70.49;93001.41;4909161;29;20084;-95
2021/07/22 00:39:16;;;;;;;1.50;1.02;;;;;;;20.90;70.57;93039.84;4862209;29;20120;-95
2021/07/22 00:46:12;;;;;;;;;;;;;;;;;;;;;
2021/07/22 00:53:54;;;;;;;;;;;;;;;;;;;;;
2021/07/22 00:57:17;;;;;;;;;;;;;;;;;;;;;
2021/07/22 01:00:21;;;;;;;;;;;;;;;;;;;;;
2021/07/22 01:04:20;;;;;;;;;;;;;;;;;;;;;
2021/07/22 01:07:53;;;;;;;2.53;1.33;;;;;;;21.02;70.30;93041.69;4898745;29;20053;-95
2021/07/22 01:15:17;;;;;;;1.50;0.90;;;;;;;20.67;71.02;92989.78;4834106;29;20074;-95
2021/07/22 01:19:09;;;;;;;;;;;;;;;;;;;;;
2021/07/22 01:22:52;;;;;;;0.55;0.47;;;;;;;20.87;70.64;93019.97;4873325;29;20563;-94
2021/07/22 01:34:35;;;;;;;1.25;0.95;;;;;;;20.92;70.34;93019.00;4876957;29;20049;-96
2021/07/22 01:37:42;;;;;;;;;;;;;;;;;;;;;
2021/07/22 01:41:18;;;;;;;1.15;0.80;;;;;;;20.63;70.29;92972.19;4862376;29;20048;-96
2021/07/22 01:45:12;;;;;;;;;;;;;;;;;;;;;
2021/07/22 01:48:57;;;;;;;0.65;0.55;;;;;;;20.69;70.34;92986.78;4868307;29;20058;-95
2021/07/22 01:52:05;;;;;;;1.60;0.98;;;;;;;20.65;70.01;92984.03;4839750;29;20102;-96
2021/07/22 01:55:47;;;;;;;0.43;0.43;;;;;;;20.67;69.89;92986.31;4836025;29;20121;-95
2021/07/22 01:59:19;;;;;;;1.33;0.98;;;;;;;20.66;69.76;92985.56;4856582;29;20081;-95
2021/07/22 02:03:00;;;;;;;1.55;1.10;;;;;;;20.91;70.02;93020.84;4858409;29;20045;-94
2021/07/22 02:20:37;;;;;;;1.15;0.63;;;;;;;20.84;68.71;93003.91;4808746;29;20089;-95
2021/07/22 02:42:34;;;;;;;0.70;0.70;;;;;;;20.56;68.91;92968.19;4827558;29;20096;-96
2021/07/22 02:49:39;;;;;;;0.70;0.70;;;;;;;20.47;69.49;92964.88;4867612;29;20402;-95
2021/07/22 02:59:59;;;;;;;;;;;;;;;;;;;;;
2021/07/22 03:11:14;;;;;;;;;;;;;;;;;;;;;
2021/07/22 03:14:50;;;;;;;1.35;0.98;;;;;;;20.68;68.47;93028.56;4833600;29;20125;-96
2021/07/22 03:18:15;;;;;;;1.70;0.85;;;;;;;20.54;69.19;93017.50;4889024;29;20121;-95
2021/07/22 03:32:58;;;;;;;;;;;;;;;;;;;;;
2021/07/22 03:35:37;;;;;;;1.13;0.93;;;;;;;20.48;68.14;93016.16;4853556;29;20049;-95
2021/07/22 03:39:29;;;;;;;;;;;;;;;;;;;;;
2021/07/22 03:57:28;;;;;;;1.00;0.68;;;;;;;20.26;68.37;93006.75;4814150;29;20050;-95
2021/07/22 04:00:59;;;;;;;;;;;;;;;;;;;;;
2021/07/22 04:04:39;;;;;;;0.73;0.63;;;;;;;20.47;69.90;93041.22;4820221;29;20114;-95
2021/07/22 04:15:29;;;;;;;;;;;;;;;;;;;;;
2021/07/22 04:31:18;;;;;;;1.33;1.13;;;;;;;20.27;70.97;93059.59;4808172;29;20042;-96
2021/07/22 04:38:12;;;;;;;;;;;;;;;;;;;;;
2021/07/22 04:41:37;;;;;;;;;;;;;;;;;;;;;
2021/07/22 04:45:37;;;;;;;;;;;;;;;;;;;;;
2021/07/22 04:48:40;;;;;;;0.47;0.47;;;;;;;19.93;68.57;93034.22;4805421;29;20054;-95
2021/07/22 05:07:35;;;;;;;0.68;0.50;;;;;;;20.15;68.70;93054.25;4823397;29;20060;-93
2021/07/22 05:11:02;;;;;;;;;;;;;;;;;;;;;
2021/07/22 05:14:18;;;;;;;;;;;;;;;;;;;;;
2021/07/22 05:32:42;;;;;;;;;;;;;;;;;;;;;
2021/07/22 05:36:58;;;;;;;;;;;;;;;;;;;;;
2021/07/22 05:40:30;;;;;;;;;;;;;;;;;;;;;
2021/07/22 05:59:22;;;;;;;;;;;;;;;;;;;;;
2021/07/22 06:35:11;;;;;;;0.35;0.35;;;;;;;20.35;71.68;93092.47;4889379;29;20135;-94
2021/07/22 07:05:10;;;;;;;1.73;1.10;;;;;;;20.70;69.70;93147.94;4815973;29;20057;-95
2021/07/22 07:12:32;;;;;;;0.55;0.50;;;;;;;20.66;70.36;93163.78;4880546;29;20059;-94
2021/07/22 07:23:49;;;;;;;;;;;;;;;;;;;;;
2021/07/22 07:58:16;;;;;;;;;;;;;;;;;;;;;
2021/07/22 08:01:53;;;;;;;;;;;;;;;;;;;;;
2021/07/22 08:05:21;;;;;;;0.75;0.55;;;;;;;21.95;65.98;93161.41;4900652;29;20056;-94
2021/07/22 08:08:48;;;;;;;;;;;;;;;;;;;;;
2021/07/22 08:12:06;;;;;;;;;;;;;;;;;;;;;
2021/07/22 08:27:14;;;;;;;;;;;;;;;;;;;;;
2021/07/22 08:30:20;;;;;;;;;;;;;;;;;;;;;
2021/07/22 08:33:41;;;;;;;0.75;0.75;;;;;;;22.30;64.27;93123.50;4757443;30;20079;-94
2021/07/22 08:44:43;;;;;;;;;;;;;;;;;;;;;
2021/07/22 08:47:48;;;;;;;1.13;0.88;;;;;;;22.27;67.22;93132.16;4763503;30;20056;-94
2021/07/22 09:13:55;;;;;;;;;;;;;;;;;;;;;
2021/07/22 09:21:28;;;;;;;;;;;;;;;;;;;;;
2021/07/22 09:24:46;;;;;;;0.63;0.57;;;;;;;24.09;59.86;93154.03;4832365;29;20052;-95
2021/07/22 09:39:29;;;;;;;2.30;1.00;;;;;;;24.48;60.26;93149.41;4863853;23;20139;-78
2021/07/22 09:42:02;;;;;;;2.97;1.10;;;;;;;24.68;59.11;93136.75;4917174;29;20076;-77
2021/07/22 09:44:36;;;;;;;2.13;1.02;;;;;;;24.13;58.19;93140.75;4898697;29;20044;-78
2021/07/22 09:47:05;;;;;;;1.98;1.48;;;;;;;24.14;58.67;93140.41;4912856;29;20040;-78
2021/07/22 09:49:36;;;;;;;1.20;1.02;;;;;;;24.26;60.57;93140.22;4911259;29;20409;-78
2021/07/22 09:52:03;;;;;;;0.95;0.73;;;;;;;24.30;58.58;93135.72;4914995;29;20127;-78
2021/07/22 09:54:38;;;;;;;1.20;1.08;;;;;;;23.94;58.44;93136.22;4893536;29;20511;-78
2021/07/22 09:57:18;;;;;;;1.63;1.08;;;;;;;24.58;58.64;93142.69;4904081;29;20513;-79
2021/07/22 09:59:46;;;;;;;1.95;1.00;;;;;;;24.66;59.22;93133.66;4916322;29;20549;-77
2021/07/22 10:02:17;;;;;;;1.35;0.95;;;;;;;24.64;59.04;93138.59;4900144;29;20054;-77
2021/07/22 10:04:49;;;;;;;1.17;0.98;;;;;;;25.06;57.13;93128.84;4917125;29;20145;-79
2021/07/22 10:07:15;;;;;;;1.85;1.20;;;;;;;24.93;59.02;93131.00;4899794;29;20036;-77
2021/07/22 10:09:43;;;;;;;2.17;1.50;;;;;;;24.65;58.59;93132.09;4900077;29;20079;-79
2021/07/22 10:12:09;;;;;;;1.58;1.08;;;;;;;24.36;60.33;93135.41;4917842;29;20044;-78
2021/07/22 10:14:36;;;;;;;1.85;1.10;;;;;;;23.62;61.16;93125.63;4910610;29;20044;-78
2021/07/22 10:17:06;;;;;;;1.75;1.38;;;;;;;24.13;61.01;93122.03;4910677;29;20040;-78
2021/07/22 10:19:36;;;;;;;1.67;1.00;;;;;;;24.25;60.04;93119.16;4903353;29;20457;-79
2021/07/22 10:22:04;;;;;;;1.90;1.00;;;;;;;24.58;57.92;93121.28;4915862;29;20044;-78
2021/07/22 10:24:29;;;;;;;1.08;0.98;;;;;;;24.54;59.53;93125.03;4916837;29;20465;-78
2021/07/22 10:26:56;;;;;;;0.95;0.60;;;;;;;24.56;59.14;93107.47;4911226;29;20104;-79
2021/07/22 10:29:24;;;;;;;2.90;1.48;;;;;;;24.58;59.96;93120.50;4913407;29;20080;-79
2021/07/22 10:31:51;;;;;;;1.63;1.27;;;;;;;24.70;58.05;93105.03;4910491;29;20563;-79
2021/07/22 10:34:18;;;;;;;0.73;0.73;;;;;;;24.58;58.35;93099.09;4881097;29;20052;-79
2021/07/22 10:36:45;;;;;;;1.05;0.77;;;;;;;25.05;58.73;93105.91;4899011;29;20044;-79
2021/07/22 10:39:11;;;;;;;2.05;1.33;;;;;;;25.32;55.43;93101.31;4895156;29;20056;-80
2021/07/22 10:41:40;;;;;;;1.60;1.20;;;;;;;25.50;54.20;93094.25;4898042;29;20117;-78
2021/07/22 10:44:14;;;;;;;3.17;1.80;;;;;;;25.47;55.53;93099.59;4897782;29;20048;-79
2021/07/22 10:47:05;;;;;;;1.33;1.13;;;;;;;25.75;55.39;93096.44;4897979;29;20051;-77
2021/07/22 10:49:38;;;;;;;1.65;1.10;;;;;;;25.32;58.68;93082.56;4879719;29;20156;-77
2021/07/22 10:52:04;;;;;;;1.65;1.10;;;;;;;25.24;56.00;93092.41;4886283;29;20075;-77
2021/07/22 10:54:55;;;;;;;3.50;1.05;;;;;;;25.21;56.19;93087.00;4896835;29;20045;-77
2021/07/22 10:57:33;;;;;;;2.50;1.50;;;;;;;25.49;55.90;93086.59;4893942;29;20486;-76
2021/07/22 10:59:58;;;;;;;1.48;1.00;;;;;;;24.99;58.79;93085.91;4898531;29;20096;-77
2021/07/22 11:02:44;;;;;;;2.15;1.23;;;;;;;25.11;57.20;93083.03;4894793;29;20132;-77
2021/07/22 11:05:26;;;;;;;1.45;0.80;;;;;;;25.51;57.06;93077.06;4898718;29;20060;-77
2021/07/22 11:08:29;;;;;;;1.15;0.82;;;;;;;25.77;55.13;93075.41;4891424;29;20104;-77
2021/07/22 11:11:02;;;;;;;1.27;1.08;;;;;;;25.44;56.13;93074.25;4867987;29;20508;-78
2021/07/22 11:13:37;;;;;;;0.65;0.65;;;;;;;25.26;55.61;93078.66;4895771;29;20045;-77
2021/07/22 11:16:11;;;;;;;1.52;1.10;;;;;;;25.36;56.79;93075.34;4896401;29;20049;-76
2021/07/22 11:18:41;;;;;;;4.15;1.58;;;;;;;25.85;57.30;93076.25;4895834;29;20311;-77
2021/07/22 11:21:08;;;;;;;1.80;0.88;;;;;;;25.86;54.77;93073.19;4895065;29;20044;-77
2021/07/22 11:23:34;;;;;;;1.95;1.52;;;;;;;25.79;54.02;93070.44;4897046;29;20100;-77
2021/07/22 11:26:00;;;;;;;1.13;0.88;;;;;;;25.85;57.78;93074.34;4897409;29;20080;-77
2021/07/22 11:28:27;;;;;;;2.03;1.15;;;;;;;25.66;55.68;93069.16;4897856;29;20414;-77
2021/07/22 11:31:04;;;;;;;2.25;1.35;;;;;;;25.70;56.57;93059.25;4896796;29;20048;-77
2021/07/22 11:33:39;;;;;;;2.65;1.67;;;;;;;25.56;55.14;93065.22;4890990;29;20060;-78
2021/07/22 11:36:12;;;;;;;2.80;1.45;;;;;;;24.99;57.11;93070.63;4895416;29;20045;-77
2021/07/22 11:38:41;;;;;;;0.75;0.68;;;;;;;24.88;57.52;93064.34;4901518;29;20056;-77
2021/07/22 11:41:12;;;;;;;3.17;1.25;;;;;;;25.43;55.52;93058.56;4918333;29;20522;-77
2021/07/22 11:43:57;;;;;;;1.05;0.88;;;;;;;25.63;55.48;93069.91;4914651;29;20040;-77
2021/07/22 11:46:45;;;;;;;2.22;1.55;;;;;;;25.78;56.01;93066.22;4910346;29;20111;-77
2021/07/22 11:49:12;;;;;;;0.75;0.68;;;;;;;24.85;57.10;93062.41;4913343;29;20083;-78
2021/07/22 11:51:39;;;;;;;1.05;0.95;;;;;;;24.77;57.52;93058.84;4918855;29;20091;-77
2021/07/22 11:54:05;;;;;;;2.10;1.55;;;;;;;24.84;56.50;93053.59;4907387;29;20147;-77
2021/07/22 11:56:36;;;;;;;5.18;1.73;;;;;;;24.60;58.49;93048.66;4919357;29;20075;-77
2021/07/22 11:59:17;;;;;;;1.17;0.98;;;;;;;25.01;57.77;93041.56;4901423;29;20080;-78
2021/07/22 12:01:49;;;;;;;2.47;1.45;;;;;;;25.16;56.95;93042.53;4902353;29;20044;-77
2021/07/22 12:04:26;;;;;;;1.90;1.23;;;;;;;25.28;56.98;93041.53;4904109;29;20044;-77
2021/07/22 12:06:52;;;;;;;0.68;0.65;;;;;;;25.38;55.41;93040.91;4922826;29;20044;-78
2021/07/22 12:09:18;;;;;;;1.50;1.35;;;;;;;25.43;55.35;93040.59;4922814;29;20048;-78
2021/07/22 12:11:58;;;;;;;1.23;1.13;;;;;;;26.11;55.26;93033.22;4905033;29;20091;-79
2021/07/22 12:14:29;;;;;;;1.80;0.93;;;;;;;25.91;55.82;93038.03;4905401;29;20040;-78
2021/07/22 12:17:00;;;;;;;2.97;1.55;;;;;;;26.62;54.27;93034.41;4922910;29;20052;-80
2021/07/22 12:19:27;;;;;;;2.58;2.00;;;;;;;26.53;53.50;93018.59;4923207;29;20052;-79
2021/07/22 12:22:21;;;;;;;1.60;1.40;;;;;;;25.82;54.58;93024.13;4924465;29;20041;-80
2021/07/22 12:25:06;;;;;;;1.38;1.08;;;;;;;25.70;54.47;93016.34;4922099;29;20080;-79
2021/07/22 12:27:44;;;;;;;3.03;1.40;;;;;;;25.08;56.84;93014.91;4907465;29;20138;-80
2021/07/22 12:30:12;;;;;;;1.73;1.27;;;;;;;25.17;56.77;93019.19;4922448;29;20055;-79
2021/07/22 12:32:50;;;;;;;0.70;0.70;;;;;;;25.75;54.22;93018.69;4887016;29;20430;-81
2021/07/22 12:35:32;;;;;;;1.90;1.67;;;;;;;25.59;54.10;93002.84;4903281;29;20052;-79
2021/07/22 12:38:04;;;;;;;1.85;1.27;;;;;;;26.00;54.14;93008.22;4920976;29;20123;-79
2021/07/22 12:40:42;;;;;;;2.25;1.83;;;;;;;25.65;55.04;92998.69;4908520;29;20555;-80
2021/07/22 12:43:13;;;;;;;1.95;1.27;;;;;;;26.13;55.35;93004.13;4917559;29;20036;-79
2021/07/22 12:45:40;;;;;;;1.35;1.08;;;;;;;26.28;53.85;93002.31;4906622;29;20056;-79
2021/07/22 12:48:07;;;;;;;3.42;1.70;;;;;;;25.80;56.16;92999.59;4906908;29;20076;-79
2021/07/22 12:50:47;;;;;;;0.93;0.90;;;;;;;25.88;56.16;92995.88;4900913;29;20036;-80
2021/07/22 12:53:17;;;;;;;2.67;1.48;;;;;;;25.46;56.64;92990.84;4916196;29;20048;-81
2021/07/22 12:55:42;;;;;;;1.27;1.00;;;;;;;25.59;55.80;92996.72;4919558;29;20056;-79
2021/07/22 12:58:24;;;;;;;1.95;1.38;;;;;;;26.19;55.11;92983.09;4880486;29;20108;-80
2021/07/22 13:00:59;;;;;;;1.90;1.17;;;;;;;26.56;55.02;92982.97;4905182;29;20044;-80
2021/07/22 13:03:24;;;;;;;1.85;1.48;;;;;;;26.42;53.58;92984.78;4903334;29;20055;-78
2021/07/22 13:05:50;;;;;;;1.35;1.25;;;;;;;26.38;53.60;92984.75;4904056;29;20056;-78
2021/07/22 13:08:16;;;;;;;1.42;1.05;;;;;;;25.92;55.35;92990.53;4892560;29;20048;-79
2021/07/22 13:10:41;;;;;;;2.58;1.38;;;;;;;25.67;56.94;92985.69;4904939;29;20558;-80
2021/07/22 13:13:07;;;;;;;1.90;1.30;;;;;;;25.70;56.20;92982.28;4880844;29;20487;-79
2021/07/22 13:15:32;;;;;;;1.70;1.33;;;;;;;25.67;55.18;92974.19;4914436;29;20055;-77
2021/07/22 13:17:58;;;;;;;1.45;1.27;;;;;;;25.91;55.06;92976.34;4904101;29;20052;-79
2021/07/22 13:20:24;;;;;;;2.42;1.45;;;;;;;26.14;53.81;92975.38;4885607;29;20423;-78
2021/07/22 13:22:49;;;;;;;1.88;1.30;;;;;;;25.89;53.63;92973.25;4917043;29;20052;-80
2021/07/22 13:25:15;;;;;;;1.40;1.30;;;;;;;25.94;55.02;92964.13;4907905;29;20406;-78
2021/07/22 13:27:41;;;;;;;4.55;1.83;;;;;;;26.42;55.59;92968.69;4898353;29;20048;-78
2021/07/22 13:30:12;;;;;;;1.38;1.10;;;;;;;26.84;53.34;92962.81;4914804;29;20052;-80
2021/07/22 13:32:38;;;;;;;1.92;1.38;;;;;;;26.93;53.70;92954.38;4920267;29;20048;-79
2021/07/22 13:35:11;;;;;;;2.08;1.20;;;;;;;26.61;53.73;92955.00;4920589;29;20075;-79
2021/07/22 13:37:39;;;;;;;1.92;1.35;;;;;;;26.32;54.76;92949.47;4920225;29;20553;-79
2021/07/22 13:40:09;;;;;;;2.17;1.50;;;;;;;26.49;55.26;92952.63;4918632;29;20442;-78
2021/07/22 13:42:35;;;;;;;1.48;1.08;;;;;;;26.97;53.03;92944.44;4913896;29;20063;-80
2021/07/22 13:45:01;;;;;;;2.38;1.65;;;;;;;26.37;53.19;92951.03;4906369;29;20054;-79
2021/07/22 13:47:26;;;;;;;2.90;1.83;;;;;;;25.64;55.77;92940.09;4920847;29;20139;-79
2021/07/22 13:49:52;;;;;;;1.63;0.98;;;;;;;25.67;56.75;92942.81;4909657;29;20052;-79
2021/07/22 13:52:18;;;;;;;2.42;1.65;;;;;;;26.21;54.49;92937.88;4917327;29;20149;-78
2021/07/22 13:54:44;;;;;;;1.65;1.33;;;;;;;26.32;53.35;92936.03;4920110;29;20542;-80
2021/07/22 13:57:10;;;;;;;2.60;1.58;;;;;;;27.13;53.34;92920.72;4919456;29;20032;-79
2021/07/22 13:59:35;;;;;;;1.40;1.25;;;;;;;27.75;51.61;92921.59;4900316;29;20715;-79
2021/07/22 14:02:02;;;;;;;2.55;1.90;;;;;;;27.42;51.05;92926.16;4913262;29;20107;-80
2021/07/22 14:04:28;;;;;;;1.85;1.33;;;;;;;27.49;50.58;92912.72;4901793;29;20403;-80
2021/07/22 14:06:53;;;;;;;2.88;1.83;;;;;;;27.34;50.11;92919.25;4919949;29;20059;-79
2021/07/22 14:09:19;;;;;;;2.97;1.98;;;;;;;27.64;49.18;92915.44;4919515;29;20059;-79
2021/07/22 14:11:45;;;;;;;1.50;1.30;;;;;;;26.60;53.27;92915.91;4902588;29;20040;-79
2021/07/22 14:14:10;;;;;;;2.65;1.73;;;;;;;27.16;52.04;92913.81;4901753;29;20180;-80
2021/07/22 14:16:36;;;;;;;2.15;1.45;;;;;;;27.73;50.60;92902.38;4917389;29;20045;-80
2021/07/22 14:19:02;;;;;;;1.08;0.98;;;;;;;27.13;52.91;92906.50;4919623;29;20513;-79
2021/07/22 14:21:28;;;;;;;2.17;1.58;;;;;;;27.58;52.08;92902.38;4918058;29;20039;-80
2021/07/22 14:23:53;;;;;;;2.60;1.65;;;;;;;27.76;52.30;92901.59;4916466;29;20391;-80
2021/07/22 14:26:19;;;;;;;1.35;1.10;;;;;;;27.25;49.84;92892.75;4902222;29;20048;-80
2021/07/22 14:28:45;;;;;;;2.95;1.77;;;;;;;27.06;52.05;92899.19;4909507;29;20614;-79
2021/07/22 14:31:10;;;;;;;3.38;1.55;;;;;;;26.90;51.81;92885.31;4899856;29;20091;-80
2021/07/22 14:33:37;;;;;;;2.22;1.77;;;;;;;27.75;50.57;92889.31;4899591;29;20068;-79
2021/07/22 14:36:04;;;;;;;1.92;1.58;;;;;;;28.27;50.74;92892.38;4899734;29;20052;-80
2021/07/22 14:38:30;;;;;;;2.40;1.80;;;;;;;27.60;49.82;92889.31;4883719;29;20511;-78
2021/07/22 14:40:56;;;;;;;2.50;1.38;;;;;;;27.54;49.40;92880.09;4919112;29;20099;-80
2021/07/22 14:43:21;;;;;;;2.33;1.65;;;;;;;27.89;49.66;92870.50;4918843;29;20052;-80
2021/07/22 14:45:47;;;;;;;1.77;1.33;;;;;;;27.47;51.64;92879.31;4896589;29;20116;-80
2021/07/22 14:48:12;;;;;;;2.35;1.55;;;;;;;27.64;51.99;92877.81;4900840;29;20095;-80
2021/07/22 14:50:38;;;;;;;2.58;1.95;;;;;;;28.12;50.66;92874.72;4883669;29;20052;-80
2021/07/22 14:53:04;;;;;;;2.35;1.55;;;;;;;27.76;50.64;92877.41;4900991;29;20158;-78
2021/07/22 14:55:30;;;;;;;3.58;1.67;;;;;;;27.47;50.07;92872.03;4900488;29;20092;-80
2021/07/22 14:57:55;;;;;;;1.35;1.23;;;;;;;27.47;49.25;92863.97;4910815;29;20506;-80
2021/07/22 15:00:21;;;;;;;2.05;1.58;;;;;;;27.34;50.40;92876.25;4918882;29;20055;-79
2021/07/22 15:02:47;;;;;;;3.42;2.13;;;;;;;26.98;50.91;92873.47;4912468;29;20154;-79
2021/07/22 15:05:12;;;;;;;6.00;1.80;;;;;;;26.35;53.00;92868.19;4899571;29;20503;-79
2021/07/22 15:07:38;;;;;;;2.03;1.45;;;;;;;26.47;54.33;92858.28;4883599;29;20108;-80
2021/07/22 15:10:04;;;;;;;3.10;1.88;;;;;;;26.84;51.60;92859.97;4898951;29;20052;-80
2021/07/22 15:12:30;;;;;;;1.77;1.33;;;;;;;27.35;49.83;92862.41;4902081;29;20058;-77
2021/07/22 15:14:58;;;;;;;3.15;1.92;;;;;;;27.45;51.84;92855.53;4902005;29;20052;-78
2021/07/22 15:17:24;;;;;;;2.53;1.80;;;;;;;27.93;50.26;92847.06;4907342;29;20044;-77
2021/07/22 15:19:50;;;;;;;1.48;1.13;;;;;;;28.45;49.43;92851.94;4915975;29;20574;-78
2021/07/22 15:22:16;;;;;;;1.13;1.02;;;;;;;28.35;50.06;92850.84;4917178;29;20056;-79
2021/07/22 15:24:42;;;;;;;3.65;2.22;;;;;;;28.53;48.51;92856.19;4901349;29;20492;-79
2021/07/22 15:27:07;;;;;;;2.35;1.42;;;;;;;27.92;49.30;92850.94;4900015;29;20074;-78
2021/07/22 15:29:33;;;;;;;3.03;2.00;;;;;;;27.82;50.29;92846.28;4900138;29;20053;-78
2021/07/22 15:31:58;;;;;;;2.35;1.80;;;;;;;27.95;49.46;92849.38;4917452;29;20051;-78
2021/07/22 15:34:24;;;;;;;2.63;1.83;;;;;;;28.23;49.90;92848.53;4917811;29;20294;-77
2021/07/22 15:36:50;;;;;;;3.03;1.52;;;;;;;28.36;48.70;92841.59;4891803;29;20047;-78
2021/07/22 15:39:15;;;;;;;1.70;1.35;;;;;;;27.81;51.39;92839.38;4913553;29;20052;-78
2021/07/22 15:41:41;;;;;;;2.63;1.80;;;;;;;27.74;50.76;92839.38;4901521;29;20129;-79
2021/07/22 15:44:07;;;;;;;3.13;1.50;;;;;;;28.38;49.33;92836.59;4900688;29;20499;-78
2021/07/22 15:46:32;;;;;;;2.30;1.58;;;;;;;28.49;49.12;92833.13;4916172;29;20076;-79
2021/07/22 15:48:58;;;;;;;2.05;1.63;;;;;;;28.61;49.24;92835.38;4919126;29;20143;-79
2021/07/22 15:51:25;;;;;;;2.42;1.67;;;;;;;28.29;49.24;92830.84;4911333;29;20044;-84
2021/07/22 15:53:50;;;;;;;2.90;1.75;;;;;;;27.50;50.93;92832.88;4887615;29;20272;-78
2021/07/22 15:56:16;;;;;;;2.47;1.85;;;;;;;27.99;50.24;92829.38;4915548;29;20091;-78
2021/07/22 15:58:42;;;;;;;2.60;1.75;;;;;;;27.45;50.32;92828.66;4918437;29;20145;-78
2021/07/22 16:01:07;;;;;;;2.17;1.52;;;;;;;27.67;49.60;92831.31;4903736;29;20079;-80
2021/07/22 16:03:33;;;;;;;1.80;1.45;;;;;;;28.01;48.06;92827.09;4901233;29;20048;-79
2021/07/22 16:05:59;;;;;;;1.98;1.08;;;;;;;28.40;48.32;92820.06;4899952;29;20523;-78
2021/07/22 16:08:25;;;;;;;2.08;1.48;;;;;;;28.32;47.54;92816.59;4915923;29;20503;-77
2021/07/22 16:10:50;;;;;;;2.85;1.98;;;;;;;27.80;48.33;92817.06;4915286;29;20116;-77
2021/07/22 16:13:16;;;;;;;4.25;2.10;;;;;;;28.16;47.69;92818.97;4898901;29;20086;-77
2021/07/22 16:15:42;;;;;;;3.13;1.88;;;;;;;28.42;47.19;92823.88;4880954;29;20045;-77
2021/07/22 16:18:08;;;;;;;2.92;1.73;;;;;;;28.57;47.78;92823.84;4915786;29;20039;-77
2021/07/22 16:20:34;;;;;;;2.53;1.63;;;;;;;28.63;47.36;92814.22;4899381;29;20052;-77
2021/07/22 16:23:02;;;;;;;3.67;1.88;;;;;;;28.65;47.31;92814.59;4916952;29;20044;-77
2021/07/22 16:25:28;;;;;;;4.40;1.80;;;;;;;28.11;48.76;92811.31;4917802;29;20658;-77
2021/07/22 16:27:55;;;;;;;1.85;1.45;;;;;;;27.99;47.39;92810.56;4917287;29;20044;-77
2021/07/22 16:30:21;;;;;;;3.10;2.28;;;;;;;28.22;47.93;92809.34;4918959;29;20048;-79
2021/07/22 16:32:47;;;;;;;4.18;2.13;;;;;;;28.10;46.97;92801.69;4909627;29;20075;-77
2021/07/22 16:35:13;;;;;;;4.07;1.92;;;;;;;28.29;47.33;92798.56;4911574;29;20066;-78
2021/07/22 16:37:39;;;;;;;2.67;1.73;;;;;;;28.18;47.42;92795.13;4917681;29;20091;-79
2021/07/22 16:40:06;;;;;;;2.78;2.05;;;;;;;28.03;47.62;92792.50;4916040;29;20517;-79
2021/07/22 16:42:32;;;;;;;3.33;1.88;;;;;;;27.92;47.96;92789.06;4912689;29;20111;-77
2021/07/22 16:44:59;;;;;;;2.88;1.73;;;;;;;27.79;49.38;92795.97;4906836;29;20040;-79
2021/07/22 16:47:25;;;;;;;4.82;1.90;;;;;;;27.47;48.47;92788.72;4916494;29;20091;-76
2021/07/22 16:49:51;;;;;;;2.53;1.70;;;;;;;27.43;48.61;92797.94;4899893;29;20048;-79
2021/07/22 16:52:17;;;;;;;2.90;1.83;;;;;;;27.31;48.80;92793.69;4906717;29;20503;-79
2021/07/22 16:54:43;;;;;;;3.28;1.90;;;;;;;27.31;48.29;92796.38;4911107;29;20759;-79
2021/07/22 16:57:08;;;;;;;2.63;1.70;;;;;;;26.96;49.50;92792.50;4904189;29;20052;-78
2021/07/22 16:59:34;;;;;;;2.40;1.73;;;;;;;27.25;49.16;92792.56;4883772;29;20048;-78
2021/07/22 17:02:00;;;;;;;4.13;2.35;;;;;;;26.94;49.49;92787.50;4915594;29;20052;-78
2021/07/22 17:04:26;;;;;;;2.30;1.73;;;;;;;27.23;49.68;92794.84;4912490;29;20053;-78
2021/07/22 17:06:52;;;;;;;3.20;2.33;;;;;;;27.17;50.06;92789.81;4914932;29;20410;-78
2021/07/22 17:09:18;;;;;;;3.17;1.48;;;;;;;27.04;49.36;92799.38;4919045;29;20076;-78
2021/07/22 17:11:43;;;;;;;2.60;1.98;;;;;;;26.96;49.92;92797.84;4902805;29;20499;-78
2021/07/22 17:14:09;;;;;;;3.70;1.90;;;;;;;26.99;49.10;92802.47;4876563;29;20044;-79
2021/07/22 17:16:35;;;;;;;3.65;1.55;;;;;;;26.91;49.68;92804.38;4918263;29;20058;-78
2021/07/22 17:19:02;;;;;;;3.08;1.73;;;;;;;26.93;50.42;92799.41;4900930;29;20083;-77
2021/07/22 17:21:28;;;;;;;2.40;1.67;;;;;;;27.06;50.04;92791.72;4916922;29;20087;-78
2021/07/22 17:23:53;;;;;;;4.22;2.42;;;;;;;27.01;49.70;92794.78;4897917;29;20044;-78
2021/07/22 17:26:19;;;;;;;2.50;1.83;;;;;;;26.93;50.52;92794.03;4911051;29;20127;-78
2021/07/22 17:28:45;;;;;;;2.03;1.48;;;;;;;26.84;51.12;92796.31;4903501;29;20048;-77
2021/07/22 17:31:11;;;;;;;3.20;1.70;;;;;;;26.85;52.15;92791.69;4915190;29;20522;-77
2021/07/22 17:33:37;;;;;;;2.92;1.98;;;;;;;26.84;51.75;92792.84;4914737;29;20058;-77
2021/07/22 17:36:04;;;;;;;2.58;1.83;;;;;;;26.79;51.05;92793.97;4892150;29;20044;-76
2021/07/22 17:38:34;;;;;;;2.15;1.80;;;;;;;26.75;51.45;92787.81;4914226;29;20876;-77
2021/07/22 17:40:59;;;;;;;3.90;2.15;;;;;;;26.67;52.19;92792.41;4914645;29;20044;-78
2021/07/22 17:43:25;;;;;;;1.40;1.13;;;;;;;26.58;53.18;92797.38;4906988;29;20048;-77
2021/07/22 17:45:51;;;;;;;2.30;1.70;;;;;;;26.45;54.57;92796.91;4897422;29;20071;-78
2021/07/22 17:48:17;;;;;;;3.33;2.28;;;;;;;26.32;55.39;92804.56;4910736;29;20100;-78
2021/07/22 17:50:42;;;;;;;3.03;2.22;;;;;;;26.18;55.73;92793.75;4894033;29;20503;-76
2021/07/22 17:53:09;;;;;;;3.97;1.98;;;;;;;26.06;56.17;92800.22;4898470;29;20052;-77
2021/07/22 17:55:35;;;;;;;2.40;1.73;;;;;;;25.91;56.58;92795.91;4914338;29;20092;-77
2021/07/22 17:58:01;;;;;;;3.47;2.05;;;;;;;25.78;57.00;92798.09;4906219;29;20736;-76
2021/07/22 18:00:28;;;;;;;2.25;1.58;;;;;;;25.65;57.63;92794.97;4909245;29;20056;-76
2021/07/22 18:02:54;;;;;;;2.13;1.55;;;;;;;25.57;57.55;92800.66;4889692;29;20056;-78
2021/07/22 18:05:19;;;;;;;3.58;2.13;;;;;;;25.44;58.22;92808.22;4897809;29;20143;-77
2021/07/22 18:07:45;;;;;;;2.60;1.70;;;;;;;25.30;58.34;92795.47;4893602;29;20482;-77
2021/07/22 18:10:11;;;;;;;2.33;1.42;;;;;;;25.18;58.84;92807.22;4868334;29;20061;-77
2021/07/22 18:12:37;;;;;;;2.88;1.92;;;;;;;25.06;58.94;92802.91;4900400;29;20061;-78
2021/07/22 18:15:05;;;;;;;5.65;2.08;;;;;;;24.91;59.44;92796.66;4909063;29;20055;-77
2021/07/22 18:17:31;;;;;;;2.90;1.80;;;;;;;24.79;60.14;92802.28;4867736;29;20048;-78
2021/07/22 18:19:56;;;;;;;2.38;1.67;;;;;;;24.70;59.97;92809.81;4902871;29;20115;-77
2021/07/22 18:22:27;;;;;;;3.00;1.95;;;;;;;24.61;60.44;92804.78;4908744;29;20044;-77
2021/07/22 18:24:53;;;;;;;2.85;1.80;;;;;;;24.49;60.60;92810.34;4890195;29;20060;-78
2021/07/22 18:27:18;;;;;;;2.13;1.63;;;;;;;24.29;61.23;92805.13;4895603;29;20048;-78
2021/07/22 18:29:44;;;;;;;9.05;1.92;;;;;;;24.18;61.11;92798.13;4889375;29;20040;-78
2021/07/22 18:32:26;;;;;;;2.17;1.67;;;;;;;24.10;61.40;92807.97;4897217;29;20056;-77
2021/07/22 18:35:14;;;;;;;3.10;2.00;;;;;;;23.98;61.50;92797.47;4898686;29;20057;-78
2021/07/22 18:37:41;;;;;;;2.63;1.75;;;;;;;23.88;61.64;92799.66;4900595;29;20075;-77
2021/07/22 18:40:09;;;;;;;3.05;1.67;;;;;;;23.81;61.99;92801.47;4912760;29;20055;-76
2021/07/22 18:42:36;;;;;;;1.65;1.38;;;;;;;23.76;62.22;92805.22;4906481;29;20093;-77
2021/07/22 18:45:03;;;;;;;3.42;1.90;;;;;;;23.68;62.11;92800.88;4881258;29;20052;-77
2021/07/22 18:47:29;;;;;;;1.27;1.10;;;;;;;23.61;62.03;92796.19;4891214;29;20055;-81
2021/07/22 18:49:55;;;;;;;1.58;1.23;;;;;;;23.51;62.52;92798.69;4906449;29;20056;-77
2021/07/22 18:52:20;;;;;;;2.58;1.67;;;;;;;23.41;62.35;92797.41;4881386;29;20139;-76
2021/07/22 18:54:48;;;;;;;3.08;1.73;;;;;;;23.32;62.20;92800.34;4886069;29;20145;-77
2021/07/22 18:57:14;;;;;;;3.30;2.03;;;;;;;23.23;62.20;92803.25;4912916;29;20048;-77
2021/07/22 18:59:40;;;;;;;1.25;0.98;;;;;;;23.16;62.44;92805.03;4911923;29;20067;-77
2021/07/22 19:02:06;;;;;;;3.22;1.65;;;;;;;23.06;62.87;92804.50;4894954;29;20044;-77
2021/07/22 19:04:34;;;;;;;1.98;1.27;;;;;;;22.96;62.99;92799.72;4895556;29;20047;-76
2021/07/22 19:07:03;;;;;;;2.47;1.25;;;;;;;22.87;62.85;92801.84;4891137;29;20033;-77
2021/07/22 19:09:30;;;;;;;1.85;1.27;;;;;;;22.80;63.15;92810.50;4881100;29;20056;-77
2021/07/22 19:11:55;;;;;;;1.63;1.33;;;;;;;22.75;63.20;92800.13;4914822;29;20116;-77
2021/07/22 19:14:21;;;;;;;2.50;1.58;;;;;;;22.74;63.08;92803.16;4896110;29;20590;-77